Time;durP1;ratioP1;P1;durP2;ratioP2;P2;SDS_P1;SDS_P2;PMS_P1;PMS_P2;Temp;Humidity;BMP_temperature;BMP_pressure;BME280_temperature;BME280_humidity;BME280_pressure;Samples;Min_cycle;Max_cycle;Signal;HPM_P1;HPM_P2
2022/05/20 00:00:46;;;;;;;;;;;24.20;63.70;;;;;;5001685;28;19937;-78
2022/05/20 00:03:15;;;;;;;;;;;24.10;63.70;;;;;;5001921;28;19933;-76
2022/05/20 00:05:42;;;;;;;;;;;24.10;63.80;;;;;;5000913;28;19962;-76
2022/05/20 00:08:09;;;;;;;;;;;24.00;63.80;;;;;;5002094;28;19937;-77
2022/05/20 00:10:35;;;;;;;;;;;24.00;63.90;;;;;;5001915;28;19936;-76
2022/05/20 00:13:02;;;;;;;;;;;24.00;64.00;;;;;;5002033;28;19936;-76
2022/05/20 00:15:30;;;;;;;;;;;23.90;64.00;;;;;;4999437;28;19936;-78
2022/05/20 00:17:57;;;;;;;;;;;23.90;64.10;;;;;;5002829;28;19930;-76
2022/05/20 00:20:26;;;;;;;;;;;23.90;64.20;;;;;;5002702;28;19929;-77
2022/05/20 00:22:53;;;;;;;;;;;23.80;64.20;;;;;;5000214;28;19930;-76
2022/05/20 00:28:05;;;;;;;;;;;23.70;64.30;;;;;;4999253;28;20427;-76
2022/05/20 00:30:31;;;;;;;;;;;23.70;64.40;;;;;;4999627;28;19929;-80
2022/05/20 00:32:58;;;;;;;;;;;23.70;64.40;;;;;;5003306;28;19933;-77
2022/05/20 00:35:27;;;;;;;;;;;23.60;64.50;;;;;;5001961;28;19934;-76
2022/05/20 00:37:53;;;;;;;;;;;23.50;64.50;;;;;;4999070;28;19929;-76
2022/05/20 00:40:22;;;;;;;;;;;23.60;64.70;;;;;;4998706;28;20072;-81
2022/05/20 00:42:49;;;;;;;;;;;23.50;64.70;;;;;;4999856;28;19930;-77
2022/05/20 00:45:16;;;;;;;;;;;23.40;64.80;;;;;;5001572;28;19971;-76
2022/05/20 00:47:43;;;;;;;;;;;23.40;64.90;;;;;;5004331;28;20317;-76
2022/05/20 00:50:11;;;;;;;;;;;23.40;65.00;;;;;;4999874;28;19972;-76
2022/05/20 00:52:41;;;;;;;;;;;23.40;65.10;;;;;;4999426;28;19936;-78
2022/05/20 00:55:11;;;;;;;;;;;23.30;65.20;;;;;;5001566;28;19933;-78
2022/05/20 00:57:39;;;;;;;;;;;23.30;65.30;;;;;;5001097;28;19934;-77
2022/05/20 01:00:08;;;;;;;;;;;23.20;65.30;;;;;;4999280;28;19939;-78
2022/05/20 01:02:34;;;;;;;;;;;23.20;65.40;;;;;;5001870;28;19925;-76
2022/05/20 01:05:03;;;;;;;;;;;23.10;65.50;;;;;;5001571;28;20403;-76
2022/05/20 01:07:30;;;;;;;;;;;23.10;65.50;;;;;;4997332;28;20027;-77
2022/05/20 01:09:58;;;;;;;;;;;23.10;65.50;;;;;;5001218;28;19929;-76
2022/05/20 01:12:26;;;;;;;;;;;23.00;65.50;;;;;;4999815;28;19933;-76
2022/05/20 01:14:53;;;;;;;;;;;23.00;65.60;;;;;;4999222;28;20009;-77
2022/05/20 01:17:20;;;;;;;;;;;22.90;65.80;;;;;;4999999;28;19929;-77
2022/05/20 01:19:48;;;;;;;;;;;22.90;65.70;;;;;;4998573;28;19942;-77
2022/05/20 01:22:25;;;;;;;;;;;22.90;65.70;;;;;;4999330;28;19926;-76
2022/05/20 01:24:53;;;;;;;;;;;22.90;65.70;;;;;;5000791;28;19935;-77
2022/05/20 01:27:19;;;;;;;;;;;22.90;65.80;;;;;;4998128;28;19936;-79
2022/05/20 01:29:46;;;;;;;;;;;22.80;65.80;;;;;;5000406;28;19933;-77
2022/05/20 01:32:13;;;;;;;;;;;22.80;65.80;;;;;;5001393;28;20007;-79
2022/05/20 01:34:39;;;;;;;;;;;22.80;65.90;;;;;;4999895;28;19937;-76
2022/05/20 01:37:06;;;;;;;;;;;22.70;66.00;;;;;;5002333;28;19936;-78
2022/05/20 01:39:33;;;;;;;;;;;22.60;66.10;;;;;;4996879;28;19944;-78
2022/05/20 01:42:03;;;;;;;;;;;22.60;65.40;;;;;;4999289;28;19929;-77
2022/05/20 01:44:32;;;;;;;;;;;22.60;66.10;;;;;;4998892;28;19952;-78
2022/05/20 01:47:02;;;;;;;;;;;22.60;66.10;;;;;;4999962;28;19929;-77
2022/05/20 01:49:33;;;;;;;;;;;22.50;66.20;;;;;;4999708;28;19929;-76
2022/05/20 01:52:03;;;;;;;;;;;22.50;66.20;;;;;;4998371;28;19933;-76
2022/05/20 01:54:33;;;;;;;;;;;22.50;66.30;;;;;;5000469;28;20420;-77
2022/05/20 01:57:05;;;;;;;;;;;22.50;66.40;;;;;;5000984;28;19937;-76
2022/05/20 01:59:35;;;;;;;;;;;22.40;66.40;;;;;;5000020;28;20405;-80
2022/05/20 02:02:03;;;;;;;;;;;22.40;66.50;;;;;;5001544;28;19933;-77
2022/05/20 02:04:33;;;;;;;;;;;22.30;66.00;;;;;;4999390;28;19933;-77
2022/05/20 02:07:03;;;;;;;;;;;22.30;66.60;;;;;;4997393;28;19929;-77
2022/05/20 02:09:32;;;;;;;;;;;22.30;66.70;;;;;;5001228;28;19937;-76
2022/05/20 02:11:59;;;;;;;;;;;22.30;67.50;;;;;;4999370;28;19929;-77
2022/05/20 02:14:29;;;;;;;;;;;20.70;65.30;;;;;;4999008;28;19941;-76
2022/05/20 02:17:02;;;;;;;;;;;22.20;66.30;;;;;;4999286;28;19929;-77
2022/05/20 02:19:32;;;;;;;;;;;22.10;67.00;;;;;;5002505;28;19945;-77
2022/05/20 02:22:01;;;;;;;;;;;22.20;67.10;;;;;;4998450;28;19933;-80
2022/05/20 02:24:28;;;;;;;;;;;22.10;66.60;;;;;;5001879;28;19926;-76
2022/05/20 02:26:56;;;;;;;;;;;22.10;67.30;;;;;;4998996;28;19934;-78
2022/05/20 02:29:25;;;;;;;;;;;22.00;67.30;;;;;;4999238;28;20416;-79
2022/05/20 02:31:54;;;;;;;;;;;22.00;67.50;;;;;;4998569;28;19933;-79
2022/05/20 02:34:21;;;;;;;;;;;22.00;67.60;;;;;;5001495;28;19936;-78
2022/05/20 02:36:48;;;;;;;;;;;21.90;67.60;;;;;;4996831;28;19929;-76
2022/05/20 02:39:16;;;;;;;;;;;21.90;67.80;;;;;;5000445;28;20352;-76
2022/05/20 02:41:43;;;;;;;;;;;21.90;67.80;;;;;;4997779;28;19941;-76
2022/05/20 02:44:10;;;;;;;;;;;21.90;67.90;;;;;;4999895;28;20411;-75
2022/05/20 02:46:37;;;;;;;;;;;21.90;68.00;;;;;;4996692;28;19969;-78
2022/05/20 02:49:06;;;;;;;;;;;21.80;68.00;;;;;;4998782;28;19976;-76
2022/05/20 02:51:32;;;;;;;;;;;21.80;68.10;;;;;;4998892;28;19937;-76
2022/05/20 02:53:59;;;;;;;;;;;21.80;68.20;;;;;;5001583;28;19929;-77
2022/05/20 02:56:25;;;;;;;;;;;21.70;68.20;;;;;;5000549;28;20456;-77
2022/05/20 03:04:21;;;;;;;;;;;21.70;68.50;;;;;;4997565;28;19932;-76
2022/05/20 03:06:49;;;;;;;;;;;21.60;68.50;;;;;;5001187;28;19929;-77
2022/05/20 03:09:16;;;;;;;;;;;21.60;68.60;;;;;;4999983;28;19934;-81
2022/05/20 03:11:44;;;;;;;;;;;21.60;68.60;;;;;;5001039;28;19933;-80
2022/05/20 03:14:12;;;;;;;;;;;21.60;68.70;;;;;;4998325;28;19934;-76
2022/05/20 03:16:39;;;;;;;;;;;21.60;68.80;;;;;;4997764;28;20301;-76
2022/05/20 03:19:05;;;;;;;;;;;21.50;68.80;;;;;;4998684;28;20430;-79
2022/05/20 03:21:34;;;;;;;;;;;21.50;68.80;;;;;;4999479;28;19937;-76
2022/05/20 03:24:01;;;;;;;;;;;21.50;68.90;;;;;;4999990;28;19929;-78
2022/05/20 03:26:28;;;;;;;;;;;21.50;69.00;;;;;;5001581;28;19930;-76
2022/05/20 03:28:55;;;;;;;;;;;21.50;69.00;;;;;;4996220;28;19941;-79
2022/05/20 03:31:21;;;;;;;;;;;21.40;69.00;;;;;;4999190;28;19930;-78
2022/05/20 03:33:48;;;;;;;;;;;21.40;69.10;;;;;;4999205;28;19929;-77
2022/05/20 03:36:14;;;;;;;;;;;21.40;69.10;;;;;;5000283;28;19929;-80
2022/05/20 03:38:42;;;;;;;;;;;21.40;69.20;;;;;;5000130;28;19952;-76
2022/05/20 03:41:10;;;;;;;;;;;21.40;69.20;;;;;;5000520;28;20393;-76
2022/05/20 03:43:37;;;;;;;;;;;21.30;69.30;;;;;;4997180;28;20269;-79
2022/05/20 03:46:04;;;;;;;;;;;21.30;69.30;;;;;;4998546;28;19929;-76
2022/05/20 03:48:31;;;;;;;;;;;21.30;69.40;;;;;;4998077;28;19937;-80
2022/05/20 03:50:58;;;;;;;;;;;21.30;69.40;;;;;;5000292;28;19937;-77
2022/05/20 03:53:24;;;;;;;;;;;21.20;69.40;;;;;;5002803;28;19937;-77
2022/05/20 03:55:52;;;;;;;;;;;21.30;69.60;;;;;;5001671;28;19929;-78
2022/05/20 03:58:19;;;;;;;;;;;21.20;69.70;;;;;;5003721;28;19930;-77
2022/05/20 04:03:45;;;;;;;;;;;21.20;69.80;;;;;;4941984;28;20458;-79
2022/05/20 04:06:11;;;;;;;;;;;21.20;69.80;;;;;;4942218;28;19931;-76
2022/05/20 04:08:38;;;;;;;;;;;21.10;69.80;;;;;;4967368;28;19936;-78
2022/05/20 04:11:11;;;;;;;;;;;21.10;69.90;;;;;;5003174;28;19936;-76
2022/05/20 04:13:38;;;;;;;;;;;21.10;70.00;;;;;;4998015;28;19972;-78
2022/05/20 04:16:05;;;;;;;;;;;21.10;70.00;;;;;;5001832;28;19937;-79
2022/05/20 04:18:32;;;;;;;;;;;21.10;70.10;;;;;;5001814;28;19933;-76
2022/05/20 04:20:58;;;;;;;;;;;21.00;70.10;;;;;;5000873;28;19929;-78
2022/05/20 04:23:25;;;;;;;;;;;21.00;70.20;;;;;;5003892;28;20453;-77
2022/05/20 04:25:51;;;;;;;;;;;21.00;70.40;;;;;;5001836;28;19930;-77
2022/05/20 04:28:19;;;;;;;;;;;21.00;70.50;;;;;;5004375;28;19936;-77
2022/05/20 04:30:46;;;;;;;;;;;21.00;70.60;;;;;;5004138;28;19926;-77
2022/05/20 04:33:13;;;;;;;;;;;21.00;70.70;;;;;;5003539;28;19929;-77
2022/05/20 04:35:40;;;;;;;;;;;20.90;70.80;;;;;;5002272;28;19957;-75
2022/05/20 04:38:06;;;;;;;;;;;20.90;70.90;;;;;;5002631;28;19929;-77
2022/05/20 04:40:33;;;;;;;;;;;20.90;71.00;;;;;;5005213;28;19936;-75
2022/05/20 04:48:29;;;;;;;;;;;20.80;71.50;;;;;;5002457;28;20305;-77
2022/05/20 04:50:55;;;;;;;;;;;20.80;71.70;;;;;;5002454;28;20381;-77
2022/05/20 04:56:03;;;;;;;;;;;20.70;71.80;;;;;;5001992;28;19929;-77
2022/05/20 04:58:29;;;;;;;;;;;20.70;72.00;;;;;;4999359;28;19930;-77
2022/05/20 05:00:58;;;;;;;;;;;20.70;72.10;;;;;;5004619;28;20063;-75
2022/05/20 05:03:24;;;;;;;;;;;20.70;72.20;;;;;;4998424;28;19925;-77
2022/05/20 05:05:51;;;;;;;;;;;20.70;72.30;;;;;;4998041;28;19925;-78
2022/05/20 05:08:18;;;;;;;;;;;20.60;72.40;;;;;;5005203;28;20585;-77
2022/05/20 05:10:45;;;;;;;;;;;20.70;72.50;;;;;;5000495;28;19929;-76
2022/05/20 05:13:12;;;;;;;;;;;20.60;72.60;;;;;;5003091;28;19937;-75
2022/05/20 05:15:39;;;;;;;;;;;20.60;72.70;;;;;;5000303;28;20352;-77
2022/05/20 05:18:12;;;;;;;;;;;20.60;72.80;;;;;;5002704;28;19929;-75
2022/05/20 05:20:41;;;;;;;;;;;20.60;73.00;;;;;;5003484;28;19929;-75
2022/05/20 05:23:08;;;;;;;;;;;20.60;73.10;;;;;;4996769;28;19956;-79
2022/05/20 05:25:36;;;;;;;;;;;20.60;73.20;;;;;;4998842;28;19964;-77
2022/05/20 05:28:03;;;;;;;;;;;20.60;73.20;;;;;;5000599;28;19929;-76
2022/05/20 05:30:30;;;;;;;;;;;20.50;74.00;;;;;;4998862;28;20681;-78
2022/05/20 05:32:56;;;;;;;;;;;20.50;73.30;;;;;;5003460;28;19934;-78
2022/05/20 05:35:25;;;;;;;;;;;20.60;73.40;;;;;;5004806;28;19930;-80
2022/05/20 05:37:52;;;;;;;;;;;20.50;73.40;;;;;;5001028;28;19929;-79
2022/05/20 05:40:19;;;;;;;;;;;20.50;73.50;;;;;;5004984;28;20459;-79
2022/05/20 05:42:46;;;;;;;;;;;20.50;73.50;;;;;;5000379;28;20412;-77
2022/05/20 05:45:14;;;;;;;;;;;20.50;77.60;;;;;;4999273;28;19936;-78
2022/05/20 05:47:41;;;;;;;;;;;20.40;78.40;;;;;;5005683;28;20679;-76
2022/05/20 05:50:08;;;;;;;;;;;20.30;78.70;;;;;;5003620;28;20468;-76
2022/05/20 05:52:36;;;;;;;;;;;20.30;78.50;;;;;;5000635;28;19930;-76
2022/05/20 05:55:03;;;;;;;;;;;20.30;77.70;;;;;;5002648;28;20263;-76
2022/05/20 05:57:29;;;;;;;;;;;20.50;78.30;;;;;;5004098;28;19930;-76
2022/05/20 05:59:56;;;;;;;;;;;20.30;78.00;;;;;;4999654;28;19929;-77
2022/05/20 06:02:24;;;;;;;;;;;20.30;78.00;;;;;;5002255;28;19945;-79
2022/05/20 06:04:51;;;;;;;;;;;20.30;77.30;;;;;;5000799;28;19952;-76
2022/05/20 06:07:18;;;;;;;;;;;20.30;77.80;;;;;;4998862;28;19933;-76
2022/05/20 06:09:46;;;;;;;;;;;20.30;77.50;;;;;;5004215;28;19929;-78
2022/05/20 06:12:14;;;;;;;;;;;20.30;77.30;;;;;;4996687;28;19929;-75
2022/05/20 06:14:41;;;;;;;;;;;20.40;77.20;;;;;;4999066;28;19996;-76
2022/05/20 06:17:09;;;;;;;;;;;20.40;77.10;;;;;;4999058;28;19944;-75
2022/05/20 06:19:36;;;;;;;;;;;20.30;78.60;;;;;;4998004;28;19980;-79
2022/05/20 06:22:03;;;;;;;;;;;20.40;80.30;;;;;;5003791;28;19961;-78
2022/05/20 06:24:30;;;;;;;;;;;20.50;80.80;;;;;;5004938;28;20293;-78
2022/05/20 06:26:58;;;;;;;;;;;20.50;81.00;;;;;;5002116;28;19940;-80
2022/05/20 06:29:24;;;;;;;;;;;20.60;80.70;;;;;;5001913;28;19925;-80
2022/05/20 06:31:51;;;;;;;;;;;20.60;80.20;;;;;;5000181;28;19937;-82
2022/05/20 06:34:17;;;;;;;;;;;20.80;79.90;;;;;;5000206;28;19930;-80
2022/05/20 06:42:19;;;;;;;;;;;20.90;78.50;;;;;;4997245;28;19999;-81
2022/05/20 06:44:45;;;;;;;;;;;20.90;78.00;;;;;;5002751;28;19941;-79
2022/05/20 06:47:13;;;;;;;;;;;21.00;78.50;;;;;;5001272;28;20030;-81
2022/05/20 06:49:39;;;;;;;;;;;21.00;77.50;;;;;;5001028;28;20043;-80
2022/05/20 06:52:06;;;;;;;;;;;21.10;77.40;;;;;;5004513;28;19925;-79
2022/05/20 06:54:32;;;;;;;;;;;21.10;76.40;;;;;;5003416;28;19933;-79
2022/05/20 06:56:59;;;;;;;;;;;21.20;77.00;;;;;;5000639;28;20481;-79
2022/05/20 06:59:27;;;;;;;;;;;21.20;76.80;;;;;;4999040;28;20406;-81
2022/05/20 07:01:54;;;;;;;;;;;21.30;76.80;;;;;;5002437;28;19933;-81
2022/05/20 07:04:20;;;;;;;;;;;21.30;76.60;;;;;;5003525;28;19926;-79
2022/05/20 07:06:47;;;;;;;;;;;21.30;76.40;;;;;;5008722;28;19934;-80
2022/05/20 07:09:14;;;;;;;;;;;21.40;76.30;;;;;;5005755;28;19988;-79
2022/05/20 07:11:42;;;;;;;;;;;21.40;76.20;;;;;;5007538;28;20321;-80
2022/05/20 07:14:08;;;;;;;;;;;21.40;76.10;;;;;;5008643;28;19968;-80
2022/05/20 07:16:36;;;;;;;;;;;21.50;76.10;;;;;;5013110;28;19940;-81
2022/05/20 07:19:03;;;;;;;;;;;21.50;76.10;;;;;;5008557;28;19933;-79
2022/05/20 07:21:29;;;;;;;;;;;21.50;76.10;;;;;;5005227;28;19937;-78
2022/05/20 07:23:56;;;;;;;;;;;21.50;76.20;;;;;;5007143;28;19939;-79
2022/05/20 07:26:23;;;;;;;;;;;21.60;76.30;;;;;;5013352;28;20309;-80
2022/05/20 07:28:49;;;;;;;;;;;21.60;76.30;;;;;;5013769;28;19930;-79
2022/05/20 07:31:17;;;;;;;;;;;21.60;76.20;;;;;;5017538;28;19929;-79
2022/05/20 07:33:45;;;;;;;;;;;21.60;76.10;;;;;;5017500;28;19924;-81
2022/05/20 07:36:11;;;;;;;;;;;21.70;76.10;;;;;;5009186;28;19929;-77
2022/05/20 07:38:38;;;;;;;;;;;21.70;76.10;;;;;;5011404;28;19980;-82
2022/05/20 07:41:05;;;;;;;;;;;21.70;76.20;;;;;;5007013;28;19933;-78
2022/05/20 07:43:32;;;;;;;;;;;21.70;76.20;;;;;;5010855;28;20458;-79
2022/05/20 07:45:59;;;;;;;;;;;21.80;76.40;;;;;;5008302;28;19967;-79
2022/05/20 07:48:26;;;;;;;;;;;21.80;76.40;;;;;;5005807;28;19941;-78
2022/05/20 07:50:56;;;;;;;;;;;21.90;76.40;;;;;;5007866;28;19934;-79
2022/05/20 07:53:32;;;;;;;;;;;21.90;76.40;;;;;;5009663;28;19936;-79
2022/05/20 07:56:00;;;;;;;;;;;21.90;76.20;;;;;;5010980;28;19936;-79
2022/05/20 07:58:28;;;;;;;;;;;21.90;76.10;;;;;;5007638;28;19936;-79
2022/05/20 08:00:58;;;;;;;;;;;21.90;76.10;;;;;;5007413;28;19929;-80
2022/05/20 08:06:08;;;;;;;;;;;22.00;76.10;;;;;;4974692;28;19931;-78
2022/05/20 08:08:34;;;;;;;;;;;22.00;76.20;;;;;;5008627;28;20003;-79
2022/05/20 08:11:01;;;;;;;;;;;22.10;76.30;;;;;;5007273;28;20412;-79
2022/05/20 08:13:27;;;;;;;;;;;22.10;76.30;;;;;;5008511;28;19933;-79
2022/05/20 08:15:54;;;;;;;;;;;22.10;76.30;;;;;;5008083;28;19934;-80
2022/05/20 08:18:20;;;;;;;;;;;22.10;76.30;;;;;;5006662;28;19936;-80
2022/05/20 08:20:47;;;;;;;;;;;22.20;76.30;;;;;;5011231;28;20277;-80
2022/05/20 08:23:15;;;;;;;;;;;22.20;75.60;;;;;;5009790;28;19944;-81
2022/05/20 08:25:42;;;;;;;;;;;22.20;76.30;;;;;;5009474;28;19926;-79
2022/05/20 08:28:08;;;;;;;;;;;22.30;76.40;;;;;;5012548;28;19926;-78
2022/05/20 08:30:35;;;;;;;;;;;22.30;76.30;;;;;;5003622;28;22259;-79
2022/05/20 08:33:01;;;;;;;;;;;22.40;76.40;;;;;;5003666;28;19929;-78
2022/05/20 08:35:28;;;;;;;;;;;22.40;76.40;;;;;;5002049;28;19941;-79
2022/05/20 08:37:55;;;;;;;;;;;22.50;76.40;;;;;;5001604;28;19929;-80
2022/05/20 08:40:24;;;;;;;;;;;22.50;76.50;;;;;;5000853;28;20017;-82
2022/05/20 08:42:51;;;;;;;;;;;22.50;76.40;;;;;;5005346;28;19929;-80
2022/05/20 08:45:19;;;;;;;;;;;22.50;76.20;;;;;;5002004;28;19940;-79
2022/05/20 08:47:47;;;;;;;;;;;22.60;76.10;;;;;;5001831;28;19940;-79
2022/05/20 08:50:15;;;;;;;;;;;22.60;76.00;;;;;;5007139;28;20471;-79
2022/05/20 08:52:42;;;;;;;;;;;22.60;75.80;;;;;;5004005;28;19937;-79
2022/05/20 08:55:10;;;;;;;;;;;22.70;75.70;;;;;;5000321;28;19933;-77
2022/05/20 08:57:39;;;;;;;;;;;22.70;75.60;;;;;;4997919;28;20020;-79
2022/05/20 09:00:06;;;;;;;;;;;22.80;75.50;;;;;;4999889;28;19930;-79
2022/05/20 09:02:33;;;;;;;;;;;22.80;75.40;;;;;;5004365;28;19934;-79
2022/05/20 09:04:59;;;;;;;;;;;22.80;75.20;;;;;;5003330;28;19933;-81
2022/05/20 09:07:26;;;;;;;;;;;22.90;75.10;;;;;;5000414;28;20305;-79
2022/05/20 09:09:55;;;;;;;;;;;23.00;74.90;;;;;;5001302;28;19930;-81
2022/05/20 09:12:26;;;;;;;;;;;23.00;75.00;;;;;;5010302;28;19929;-81
2022/05/20 09:17:50;;;;;;;;;;;23.10;74.70;;;;;;5004246;28;19988;-79
2022/05/20 09:20:18;;;;;;;;;;;23.20;74.60;;;;;;5008665;28;19930;-80
2022/05/20 09:22:54;;;;;;;;;;;23.20;74.40;;;;;;4998204;28;19941;-80
2022/05/20 09:25:25;;;;;;;;;;;23.30;74.20;;;;;;4999882;28;19936;-81
2022/05/20 09:27:53;;;;;;;;;;;23.30;73.90;;;;;;5001050;28;19968;-83
2022/05/20 09:30:24;;;;;;;;;;;23.40;73.70;;;;;;4995260;28;21347;-77
2022/05/20 09:32:59;;;;;;;;;;;23.50;73.50;;;;;;4993824;28;20032;-77
2022/05/20 09:35:31;;;;;;;;;;;23.50;73.20;;;;;;4997903;28;19952;-75
2022/05/20 09:37:58;;;;;;;;;;;23.50;72.70;;;;;;4997896;28;19936;-76
2022/05/20 09:40:26;;;;;;;;;;;23.60;72.50;;;;;;5000795;28;19952;-78
2022/05/20 09:42:57;;;;;;;;;;;23.70;72.20;;;;;;4994524;28;19936;-74
2022/05/20 09:45:25;;;;;;;;;;;23.80;72.00;;;;;;4999067;28;21050;-77
2022/05/20 09:47:54;;;;;;;;;;;23.80;71.50;;;;;;4998571;28;19949;-76
2022/05/20 09:50:24;;;;;;;;;;;23.90;71.30;;;;;;4988316;28;19960;-79
2022/05/20 09:52:52;;;;;;;;;;;23.90;70.90;;;;;;4999096;28;19937;-76
2022/05/20 09:55:24;;;;;;;;;;;24.00;70.70;;;;;;5000076;28;19972;-76
2022/05/20 09:57:54;;;;;;;;;;;24.10;70.40;;;;;;4999179;28;19936;-78
2022/05/20 10:00:23;;;;;;;;;;;24.10;69.40;;;;;;4996272;28;19984;-76
2022/05/20 10:02:59;;;;;;;;;;;24.20;69.10;;;;;;4997282;28;19933;-77
2022/05/20 10:05:31;;;;;;;;;;;24.30;68.90;;;;;;4997353;28;19969;-76
2022/05/20 10:08:11;;;;;;;;;;;24.40;68.70;;;;;;5001683;28;19933;-76
2022/05/20 10:10:41;;;;;;;;;;;24.40;68.40;;;;;;4999942;28;19930;-77
2022/05/20 10:13:09;;;;;;;;;;;24.50;68.20;;;;;;5000639;28;19934;-80
2022/05/20 10:15:39;;;;;;;;;;;24.60;67.90;;;;;;4999825;28;19940;-79
2022/05/20 10:18:18;;;;;;;;;;;24.60;67.60;;;;;;5004006;28;19933;-78
2022/05/20 10:20:47;;;;;;;;;;;24.70;67.30;;;;;;4993125;28;19929;-77
2022/05/20 10:23:17;;;;;;;;;;;24.80;67.00;;;;;;4990654;28;19933;-77
2022/05/20 10:25:46;;;;;;;;;;;24.90;66.60;;;;;;4990407;28;19929;-76
2022/05/20 10:32:34;;;;;;;;;;;24.90;66.40;;;;;;4990094;28;20413;-77
2022/05/20 10:34:01;;;;;;;;;;;25.10;65.90;;;;;;4993023;28;19941;-77
2022/05/20 10:36:34;;;;;;;;;;;25.20;65.60;;;;;;4993133;28;19940;-77
2022/05/20 10:39:04;;;;;;;;;;;25.30;65.40;;;;;;4993065;28;19930;-76
2022/05/20 10:41:38;;;;;;;;;;;25.40;64.90;;;;;;4998680;28;19941;-75
2022/05/20 10:49:55;;;;;;;;;;;25.60;64.20;;;;;;4991233;28;19933;-76
2022/05/20 10:52:28;;;;;;;;;;;25.70;63.60;;;;;;4994700;28;20421;-78
2022/05/20 10:55:03;;;;;;;;;;;25.70;63.10;;;;;;4992119;28;20016;-76
2022/05/20 10:57:52;;;;;;;;;;;25.80;62.50;;;;;;4999192;28;20705;-76
2022/05/20 11:00:20;;;;;;;;;;;25.90;62.00;;;;;;4996143;28;20251;-76
2022/05/20 11:03:04;;;;;;;;;;;25.90;62.30;;;;;;5002568;28;20429;-77
2022/05/20 11:05:46;;;;;;;;;;;26.00;62.10;;;;;;4993034;28;19929;-78
2022/05/20 11:08:25;;;;;;;;;;;26.00;61.60;;;;;;5006721;28;19944;-76
2022/05/20 11:10:57;;;;;;;;;;;26.20;59.10;;;;;;5007514;28;19952;-77
2022/05/20 11:13:30;;;;;;;;;;;26.30;59.40;;;;;;5011674;28;19926;-76
2022/05/20 11:16:06;;;;;;;;;;;26.40;59.60;;;;;;5009369;28;20020;-78
2022/05/20 11:18:43;;;;;;;;;;;26.40;59.70;;;;;;5011380;28;20020;-78
2022/05/20 11:21:27;;;;;;;;;;;26.40;59.80;;;;;;5008830;28;19930;-78
2022/05/20 11:24:04;;;;;;;;;;;26.40;59.90;;;;;;5009274;28;19925;-76
2022/05/20 11:26:43;;;;;;;;;;;26.40;59.80;;;;;;5006757;28;19929;-77
2022/05/20 11:29:28;;;;;;;;;;;26.50;59.70;;;;;;5004714;28;19933;-77
2022/05/20 11:31:55;;;;;;;;;;;26.50;59.50;;;;;;4999336;28;20405;-77
2022/05/20 11:34:43;;;;;;;;;;;26.50;59.50;;;;;;5010709;28;19936;-77
2022/05/20 11:37:18;;;;;;;;;;;26.60;59.50;;;;;;5003952;28;19933;-76
2022/05/20 11:39:52;;;;;;;;;;;26.60;59.30;;;;;;5010572;28;19930;-77
2022/05/20 11:42:24;;;;;;;;;;;26.70;59.00;;;;;;5013230;28;19936;-76
2022/05/20 11:44:54;;;;;;;;;;;26.70;58.80;;;;;;5005087;28;19934;-77
2022/05/20 11:47:48;;;;;;;;;;;26.80;58.50;;;;;;5010139;28;19936;-76
2022/05/20 11:50:24;;;;;;;;;;;26.80;58.60;;;;;;4989629;28;19933;-76
2022/05/20 11:52:54;;;;;;;;;;;26.90;58.60;;;;;;5003597;28;19933;-76
2022/05/20 11:55:24;;;;;;;;;;;27.00;58.40;;;;;;5005953;28;19933;-77
2022/05/20 11:57:51;;;;;;;;;;;27.00;58.30;;;;;;5011354;28;19948;-77
2022/05/20 12:00:21;;;;;;;;;;;27.10;58.40;;;;;;4998406;28;20364;-76
2022/05/20 12:02:49;;;;;;;;;;;27.20;58.20;;;;;;4996430;28;19936;-75
2022/05/20 12:05:17;;;;;;;;;;;27.20;58.00;;;;;;5004040;28;19929;-75
2022/05/20 12:07:44;;;;;;;;;;;27.30;57.90;;;;;;4999941;28;19930;-76
2022/05/20 12:10:18;;;;;;;;;;;27.40;57.60;;;;;;5004190;28;19930;-74
2022/05/20 12:12:53;;;;;;;;;;;27.40;56.90;;;;;;5000814;28;19929;-74
2022/05/20 12:15:43;;;;;;;;;;;27.50;57.00;;;;;;5002469;28;19933;-75
2022/05/20 12:24:11;;;;;;;;;;;27.50;56.70;;;;;;4997316;28;19929;-74
2022/05/20 12:24:13;;;;;;;;;;;27.60;56.70;;;;;;4999592;28;19981;-74
2022/05/20 12:26:47;;;;;;;;;;;27.70;56.40;;;;;;5001418;28;19925;-75
2022/05/20 12:29:32;;;;;;;;;;;27.80;55.80;;;;;;4998805;28;19929;-75
2022/05/20 12:32:00;;;;;;;;;;;27.80;56.00;;;;;;4996412;28;19930;-75
2022/05/20 12:34:47;;;;;;;;;;;27.90;55.70;;;;;;5001065;28;19933;-74
2022/05/20 12:37:40;;;;;;;;;;;27.90;54.90;;;;;;4993307;28;19934;-76
2022/05/20 12:40:16;;;;;;;;;;;28.00;54.90;;;;;;5003483;28;19992;-75
2022/05/20 12:42:46;;;;;;;;;;;28.00;54.70;;;;;;5002673;28;19933;-75
2022/05/20 12:45:12;;;;;;;;;;;28.10;54.50;;;;;;5000663;28;19929;-76
2022/05/20 12:47:40;;;;;;;;;;;28.10;54.60;;;;;;5006699;28;19929;-76
2022/05/20 12:50:08;;;;;;;;;;;28.20;54.60;;;;;;5001333;28;19936;-78
2022/05/20 12:52:35;;;;;;;;;;;28.20;54.10;;;;;;5006005;28;19932;-75
2022/05/20 12:55:11;;;;;;;;;;;28.30;54.30;;;;;;5006552;28;19936;-76
2022/05/20 12:57:48;;;;;;;;;;;28.30;54.80;;;;;;5007381;28;19932;-79
2022/05/20 13:00:15;;;;;;;;;;;28.30;53.70;;;;;;5001909;28;19937;-77
2022/05/20 13:02:45;;;;;;;;;;;28.40;53.80;;;;;;5005379;28;19930;-75
2022/05/20 13:05:17;;;;;;;;;;;28.40;53.60;;;;;;5006632;28;19933;-76
2022/05/20 13:07:44;;;;;;;;;;;28.50;53.30;;;;;;5001218;28;20524;-77
2022/05/20 13:10:25;;;;;;;;;;;28.50;53.00;;;;;;5001018;28;20297;-76
2022/05/20 13:12:52;;;;;;;;;;;28.60;53.10;;;;;;5000074;28;19922;-76
2022/05/20 13:15:19;;;;;;;;;;;28.60;53.00;;;;;;4999864;28;19940;-75
2022/05/20 13:17:57;;;;;;;;;;;28.60;52.80;;;;;;5002867;28;19969;-76
2022/05/20 13:20:24;;;;;;;;;;;28.60;52.70;;;;;;5000852;28;19933;-75
2022/05/20 13:22:51;;;;;;;;;;;28.70;52.80;;;;;;4992944;28;20609;-75
2022/05/20 13:25:19;;;;;;;;;;;28.70;52.60;;;;;;5002072;28;19932;-76
2022/05/20 13:27:46;;;;;;;;;;;28.70;52.50;;;;;;5003664;28;20266;-77
2022/05/20 13:30:14;;;;;;;;;;;28.70;52.60;;;;;;4998882;28;19926;-75
2022/05/20 13:32:41;;;;;;;;;;;28.70;52.90;;;;;;5001377;28;20000;-75
2022/05/20 13:35:09;;;;;;;;;;;28.70;52.60;;;;;;5005507;28;19933;-76
2022/05/20 13:37:37;;;;;;;;;;;28.70;52.40;;;;;;5002494;28;19940;-76
2022/05/20 13:40:10;;;;;;;;;;;28.70;52.50;;;;;;5001223;28;19984;-75
2022/05/20 13:42:36;;;;;;;;;;;28.70;52.60;;;;;;4995589;28;19956;-77
2022/05/20 13:45:08;;;;;;;;;;;28.70;52.80;;;;;;4997104;28;19937;-75
2022/05/20 13:50:22;;;;;;;;;;;28.70;53.00;;;;;;5001473;28;19948;-79
2022/05/20 13:52:49;;;;;;;;;;;28.70;53.10;;;;;;5001861;28;20625;-75
2022/05/20 13:55:17;;;;;;;;;;;28.70;53.20;;;;;;5002540;28;19936;-75
2022/05/20 13:57:44;;;;;;;;;;;28.70;53.20;;;;;;4999735;28;19957;-76
2022/05/20 14:00:17;;;;;;;;;;;28.70;53.50;;;;;;5000681;28;19929;-75
2022/05/20 14:02:49;;;;;;;;;;;28.70;53.70;;;;;;5002036;28;19933;-78
2022/05/20 14:05:18;;;;;;;;;;;28.70;53.90;;;;;;5000089;28;19940;-76
2022/05/20 14:07:48;;;;;;;;;;;28.70;53.80;;;;;;5002297;28;20633;-76
2022/05/20 14:10:16;;;;;;;;;;;28.70;54.00;;;;;;5006248;28;19972;-76
2022/05/20 14:12:46;;;;;;;;;;;28.70;54.00;;;;;;4999519;28;19929;-75
2022/05/20 14:15:16;;;;;;;;;;;28.70;54.10;;;;;;4991041;28;20027;-75
2022/05/20 14:17:43;;;;;;;;;;;28.70;54.40;;;;;;4997259;28;20020;-76
2022/05/20 14:20:12;;;;;;;;;;;28.70;54.70;;;;;;5004672;28;19929;-74
2022/05/20 14:22:39;;;;;;;;;;;28.60;54.80;;;;;;5001955;28;19984;-76
2022/05/20 14:25:14;;;;;;;;;;;28.60;54.80;;;;;;5005492;28;20342;-75
2022/05/20 14:27:42;;;;;;;;;;;28.60;55.00;;;;;;5001701;28;19968;-76
2022/05/20 14:30:21;;;;;;;;;;;28.60;54.80;;;;;;5000537;28;19929;-76
2022/05/20 14:32:49;;;;;;;;;;;28.60;54.60;;;;;;5004405;28;19953;-76
2022/05/20 14:35:17;;;;;;;;;;;28.50;54.40;;;;;;4997793;28;19929;-74
2022/05/20 14:37:44;;;;;;;;;;;28.60;54.60;;;;;;4998578;28;19929;-76
2022/05/20 14:40:14;;;;;;;;;;;28.50;54.80;;;;;;5002510;28;19936;-75
2022/05/20 14:42:41;;;;;;;;;;;28.50;55.20;;;;;;5005070;28;19933;-76
2022/05/20 14:45:13;;;;;;;;;;;28.50;55.70;;;;;;4997829;28;19933;-76
2022/05/20 14:47:41;;;;;;;;;;;28.40;56.40;;;;;;5006243;28;19929;-76
2022/05/20 14:50:14;;;;;;;;;;;28.40;56.90;;;;;;5005800;28;20052;-77
2022/05/20 14:52:43;;;;;;;;;;;28.40;57.30;;;;;;4998625;28;19929;-75
2022/05/20 14:55:15;;;;;;;;;;;28.30;57.80;;;;;;5003985;28;20016;-75
2022/05/20 14:57:41;;;;;;;;;;;28.20;58.10;;;;;;5001993;28;20317;-75
2022/05/20 15:00:13;;;;;;;;;;;28.20;58.40;;;;;;5001719;28;19933;-75
2022/05/20 15:02:40;;;;;;;;;;;28.20;58.70;;;;;;5004693;28;19972;-75
2022/05/20 15:05:08;;;;;;;;;;;28.20;59.00;;;;;;4995350;28;19934;-77
2022/05/20 15:07:35;;;;;;;;;;;28.10;58.90;;;;;;5003849;28;19930;-76
2022/05/20 15:10:02;;;;;;;;;;;28.10;58.60;;;;;;5007017;28;20340;-78
2022/05/20 15:12:30;;;;;;;;;;;28.10;58.60;;;;;;4998119;28;19929;-75